createdAt,value
2018-09-06T00:00:06.683Z,70.56
2018-09-06T00:01:06.714Z,70.32
2018-09-06T00:02:06.738Z,70.26
2018-09-06T00:03:06.762Z,70.46
2018-09-06T00:04:06.797Z,70.26
2018-09-06T00:05:06.815Z,70.07
2018-09-06T00:06:06.875Z,70.04
2018-09-06T00:08:06.895Z,70.17
2018-09-06T00:09:06.918Z,70.62
2018-09-06T00:10:06.937Z,70.42
2018-09-06T00:11:06.968Z,70.52
2018-09-06T00:13:07.017Z,70.52
2018-09-06T00:14:07.036Z,70.72
2018-09-06T00:15:07.064Z,70.42
2018-09-06T00:16:07.097Z,70.32
2018-09-06T00:17:07.116Z,70.32
2018-09-06T00:18:07.141Z,70.23
2018-09-06T00:19:07.167Z,70.62
2018-09-06T00:20:07.189Z,70.32
2018-09-06T00:21:07.220Z,70.42
2018-09-06T00:22:07.239Z,70.72
2018-09-06T00:23:07.263Z,70.52
2018-09-06T00:24:07.290Z,70.42
2018-09-06T00:25:07.323Z,70.14
2018-09-06T00:26:07.348Z,70.52
2018-09-06T00:27:07.370Z,70.52
2018-09-06T00:28:07.389Z,70.72
2018-09-06T00:29:07.412Z,70.90
2018-09-06T00:30:07.441Z,70.90
2018-09-06T00:31:07.468Z,70.72
2018-09-06T00:32:07.490Z,70.72
2018-09-06T00:33:07.516Z,70.90
2018-09-06T00:34:07.540Z,70.81
2018-09-06T00:35:07.568Z,70.62
2018-09-06T00:36:07.588Z,70.52
2018-09-06T00:37:07.701Z,70.72
2018-09-06T00:38:07.638Z,71.10
2018-09-06T00:39:07.662Z,70.72
2018-09-06T00:40:07.692Z,70.81
2018-09-06T00:41:07.713Z,70.52
2018-09-06T00:42:07.743Z,70.81
2018-09-06T00:43:07.765Z,70.62
2018-09-06T00:44:07.787Z,71.00
2018-09-06T00:45:07.807Z,70.81
2018-09-06T00:46:07.839Z,70.81
2018-09-06T00:47:07.881Z,70.72
2018-09-06T00:48:07.887Z,70.81
2018-09-06T00:49:07.913Z,70.72
2018-09-06T00:50:08.047Z,70.23
2018-09-06T00:51:07.961Z,70.52
2018-09-06T00:52:07.992Z,70.42
2018-09-06T00:53:08.015Z,70.23
2018-09-06T00:54:08.047Z,70.23
2018-09-06T00:55:08.063Z,70.62
2018-09-06T00:56:08.090Z,70.72
2018-09-06T00:57:08.114Z,70.81
2018-09-06T00:58:08.133Z,70.81
2018-09-06T00:59:08.157Z,70.72
2018-09-06T01:00:08.193Z,71.00
2018-09-06T01:01:08.295Z,70.72
2018-09-06T01:02:08.234Z,71.39
2018-09-06T01:03:08.267Z,71.10
2018-09-06T01:04:08.286Z,71.39
2018-09-06T01:05:08.319Z,70.90
2018-09-06T01:06:08.338Z,71.20
2018-09-06T01:07:08.362Z,70.72
2018-09-06T01:08:08.389Z,71.10
2018-09-06T01:09:08.412Z,70.62
2018-09-06T01:10:08.439Z,70.62
2018-09-06T01:11:08.461Z,70.62
2018-09-06T01:12:08.522Z,71.39
2018-09-06T01:13:08.511Z,70.81
2018-09-06T01:14:08.540Z,70.90
2018-09-06T01:15:08.581Z,71.10
2018-09-06T01:16:08.583Z,70.62
2018-09-06T01:17:08.621Z,70.62
2018-09-06T01:18:08.688Z,70.81
2018-09-06T01:19:08.661Z,70.62
2018-09-06T01:20:08.687Z,71.00
2018-09-06T01:21:08.706Z,70.81
2018-09-06T01:22:08.735Z,70.81
2018-09-06T01:23:08.756Z,70.72
2018-09-06T01:24:08.788Z,70.62
2018-09-06T01:25:08.888Z,71.48
2018-09-06T01:26:08.838Z,72.22
2018-09-06T01:27:08.864Z,71.84
2018-09-06T01:29:08.902Z,71.58
2018-09-06T01:30:08.936Z,72.16
2018-09-06T01:31:08.957Z,71.88
2018-09-06T01:32:08.982Z,71.78
2018-09-06T01:33:09.019Z,71.78
2018-09-06T01:34:09.036Z,71.68
2018-09-06T01:35:09.060Z,71.97
2018-09-06T01:36:09.144Z,71.88
2018-09-06T01:37:09.110Z,71.68
2018-09-06T01:38:09.133Z,71.30
2018-09-06T01:39:09.159Z,71.30
2018-09-06T01:40:09.184Z,71.88
2018-09-06T01:42:09.242Z,70.81
2018-09-06T01:43:09.272Z,70.72
2018-09-06T01:44:09.283Z,70.72
2018-09-06T01:45:09.308Z,71.48
2018-09-06T01:46:09.335Z,71.39
2018-09-06T01:47:10.153Z,71.48
2018-09-06T01:48:09.383Z,71.88
2018-09-06T01:49:09.407Z,72.03
2018-09-06T01:50:09.424Z,71.58
2018-09-06T01:51:09.460Z,71.88
2018-09-06T01:52:09.482Z,71.97
2018-09-06T01:53:09.513Z,71.39
2018-09-06T01:54:09.533Z,71.26
2018-09-06T01:55:09.558Z,71.74
2018-09-06T01:56:09.585Z,72.61
2018-09-06T01:57:09.603Z,73.00
2018-09-06T01:58:09.661Z,72.80
2018-09-06T01:59:09.665Z,73.09
2018-09-06T02:00:09.682Z,73.28
2018-09-06T02:01:09.703Z,72.71
2018-09-06T02:02:09.728Z,72.61
2018-09-06T02:03:09.761Z,72.80
2018-09-06T02:04:09.782Z,73.19
2018-09-06T02:05:09.807Z,73.00
2018-09-06T02:06:09.832Z,74.06
2018-09-06T02:07:09.847Z,73.09
2018-09-06T02:08:09.885Z,73.58
2018-09-06T02:09:09.957Z,74.21
2018-09-06T02:10:09.933Z,74.16
2018-09-06T02:11:10.019Z,74.31
2018-09-06T02:12:09.976Z,74.64
2018-09-06T02:13:10.004Z,74.99
2018-09-06T02:14:10.024Z,74.79
2018-09-06T02:15:10.054Z,74.64
2018-09-06T02:16:10.091Z,74.41
2018-09-06T02:17:10.108Z,74.35
2018-09-06T02:18:10.127Z,74.21
2018-09-06T02:19:10.151Z,74.31
2018-09-06T02:20:10.720Z,74.02
2018-09-06T02:21:10.212Z,74.02
2018-09-06T02:22:10.236Z,73.83
2018-09-06T02:23:10.251Z,74.02
2018-09-06T02:24:10.273Z,73.93
2018-09-06T02:25:10.299Z,74.12
2018-09-06T02:26:10.323Z,73.58
2018-09-06T02:27:10.356Z,73.86
2018-09-06T02:28:10.384Z,73.09
2018-09-06T02:29:10.398Z,73.28
2018-09-06T02:30:10.430Z,73.28
2018-09-06T02:31:10.462Z,73.28
2018-09-06T02:32:10.470Z,73.19
2018-09-06T02:33:10.495Z,73.77
2018-09-06T02:34:10.522Z,73.58
2018-09-06T02:35:10.547Z,73.83
2018-09-06T02:36:10.582Z,73.48
2018-09-06T02:37:10.585Z,73.86
2018-09-06T02:38:10.637Z,73.96
2018-09-06T02:39:10.654Z,73.09
2018-09-06T02:40:10.667Z,73.67
2018-09-06T02:41:10.721Z,73.00
2018-09-06T02:42:10.721Z,73.77
2018-09-06T02:43:10.742Z,73.67
2018-09-06T02:44:10.765Z,73.86
2018-09-06T02:45:10.797Z,73.77
2018-09-06T02:46:10.821Z,73.67
2018-09-06T02:47:10.845Z,74.02
2018-09-06T02:48:10.858Z,74.31
2018-09-06T02:49:10.889Z,74.21
2018-09-06T02:50:10.912Z,74.31
2018-09-06T02:51:10.948Z,73.96
2018-09-06T02:52:10.964Z,74.16
2018-09-06T02:53:10.979Z,73.77
2018-09-06T02:54:11.009Z,73.58
2018-09-06T02:55:11.037Z,73.77
2018-09-06T02:56:11.061Z,73.77
2018-09-06T02:57:11.086Z,73.58
2018-09-06T02:58:11.114Z,73.44
2018-09-06T02:59:11.124Z,74.12
2018-09-06T03:00:11.207Z,73.73
2018-09-06T03:01:11.179Z,73.86
2018-09-06T03:02:11.214Z,74.12
2018-09-06T03:03:11.231Z,74.16
2018-09-06T03:05:11.283Z,73.67
2018-09-06T03:06:11.303Z,74.12
2018-09-06T03:07:11.331Z,74.12
2018-09-06T03:08:11.374Z,74.21
2018-09-06T03:09:11.371Z,74.21
2018-09-06T03:10:11.410Z,73.63
2018-09-06T03:11:11.421Z,73.19
2018-09-06T03:12:11.449Z,73.86
2018-09-06T03:13:11.473Z,73.67
2018-09-06T03:14:11.502Z,73.19
2018-09-06T03:15:11.525Z,73.73
2018-09-06T03:16:11.545Z,73.35
2018-09-06T03:17:11.585Z,73.00
2018-09-06T03:18:11.599Z,73.28
2018-09-06T03:19:11.621Z,73.19
2018-09-06T03:20:11.650Z,73.86
2018-09-06T03:21:11.709Z,73.28
2018-09-06T03:22:11.736Z,73.28
2018-09-06T03:23:11.719Z,73.38
2018-09-06T03:24:11.747Z,73.19
2018-09-06T03:25:11.779Z,73.38
2018-09-06T03:26:11.796Z,73.19
2018-09-06T03:27:11.821Z,73.19
2018-09-06T03:28:11.907Z,73.00
2018-09-06T03:29:11.867Z,73.58
2018-09-06T03:30:11.902Z,73.93
2018-09-06T03:31:11.912Z,74.06
2018-09-06T03:32:11.943Z,74.16
2018-09-06T03:33:11.970Z,74.06
2018-09-06T03:34:11.992Z,73.93
2018-09-06T03:35:12.018Z,73.67
2018-09-06T03:36:12.039Z,73.86
2018-09-06T03:37:12.062Z,73.63
2018-09-06T03:38:12.084Z,73.77
2018-09-06T03:39:12.109Z,74.31
2018-09-06T03:40:12.134Z,74.31
2018-09-06T03:41:12.174Z,73.96
2018-09-06T03:42:12.187Z,73.93
2018-09-06T03:43:12.216Z,74.60
2018-09-06T03:44:12.240Z,74.60
2018-09-06T03:45:12.273Z,73.83
2018-09-06T03:46:12.286Z,73.93
2018-09-06T03:47:12.311Z,74.31
2018-09-06T03:48:12.336Z,74.02
2018-09-06T03:49:12.362Z,74.60
2018-09-06T03:50:12.378Z,74.31
2018-09-06T03:51:12.413Z,74.31
2018-09-06T03:52:12.431Z,74.31
2018-09-06T03:53:12.453Z,73.93
2018-09-06T03:54:12.487Z,74.79
2018-09-06T03:55:12.511Z,74.60
2018-09-06T03:56:12.541Z,74.41
2018-09-06T03:57:12.560Z,74.21
2018-09-06T03:58:12.578Z,74.51
2018-09-06T03:59:12.601Z,74.99
2018-09-06T04:00:12.628Z,75.18
2018-09-06T04:01:12.654Z,74.79
2018-09-06T04:02:12.678Z,75.18
2018-09-06T04:03:12.719Z,75.18
2018-09-06T04:04:12.724Z,75.76
2018-09-06T04:05:12.753Z,75.76
2018-09-06T04:06:12.776Z,75.47
2018-09-06T04:07:12.801Z,75.27
2018-09-06T04:08:12.823Z,75.27
2018-09-06T04:09:12.850Z,75.18
2018-09-06T04:10:12.869Z,74.89
2018-09-06T04:11:12.939Z,74.79
2018-09-06T04:12:12.920Z,74.79
2018-09-06T04:13:12.943Z,75.37
2018-09-06T04:14:13.027Z,75.09
2018-09-06T04:15:12.993Z,75.18
2018-09-06T04:16:13.013Z,75.27
2018-09-06T04:17:13.035Z,75.18
2018-09-06T04:18:13.073Z,75.27
2018-09-06T04:19:13.099Z,75.18
2018-09-06T04:20:13.120Z,75.47
2018-09-06T04:21:13.139Z,74.60
2018-09-06T04:22:13.170Z,75.27
2018-09-06T04:23:13.187Z,75.09
2018-09-06T04:24:13.246Z,75.09
2018-09-06T04:25:13.289Z,75.09
2018-09-06T04:26:13.264Z,75.18
2018-09-06T04:27:13.290Z,75.37
2018-09-06T04:28:13.312Z,75.57
2018-09-06T04:29:13.346Z,75.27
2018-09-06T04:30:13.363Z,75.18
2018-09-06T04:31:13.386Z,75.57
2018-09-06T04:32:13.414Z,75.57
2018-09-06T04:33:13.442Z,75.27
2018-09-06T04:34:13.458Z,75.09
2018-09-06T04:35:13.489Z,75.27
2018-09-06T04:36:13.502Z,74.79
2018-09-06T04:37:13.534Z,74.99
2018-09-06T04:38:13.555Z,74.99
2018-09-06T04:39:13.586Z,74.79
2018-09-06T04:40:14.244Z,74.89
2018-09-06T04:41:13.635Z,74.89
2018-09-06T04:42:13.659Z,74.79
2018-09-06T04:43:13.682Z,75.27
2018-09-06T04:44:13.711Z,75.09
2018-09-06T04:45:13.725Z,75.47
2018-09-06T04:46:13.752Z,75.57
2018-09-06T04:47:13.775Z,75.76
2018-09-06T04:48:13.802Z,75.37
2018-09-06T04:49:13.934Z,75.09
2018-09-06T04:50:13.850Z,75.67
2018-09-06T04:51:13.873Z,75.95
2018-09-06T04:52:13.899Z,75.95
2018-09-06T04:53:14.752Z,75.47
2018-09-06T04:54:13.956Z,75.57
2018-09-06T04:55:14.018Z,75.85
2018-09-06T04:56:13.998Z,75.47
2018-09-06T04:57:14.017Z,75.57
2018-09-06T04:58:14.040Z,75.37
2018-09-06T04:59:14.069Z,75.95
2018-09-06T05:00:14.116Z,76.43
2018-09-06T05:01:14.132Z,75.76
2018-09-06T05:02:14.752Z,75.47
2018-09-06T05:03:14.169Z,75.47
2018-09-06T05:04:14.205Z,75.67
2018-09-06T05:05:14.220Z,75.37
2018-09-06T05:06:14.239Z,75.67
2018-09-06T05:07:14.272Z,75.37
2018-09-06T05:08:14.293Z,75.67
2018-09-06T05:09:14.356Z,75.57
2018-09-06T05:10:14.354Z,75.57
2018-09-06T05:11:14.397Z,75.57
2018-09-06T05:12:14.400Z,75.57
2018-09-06T05:13:14.464Z,75.76
2018-09-06T05:14:14.443Z,74.51
2018-09-06T05:15:14.458Z,74.99
2018-09-06T05:16:14.483Z,74.60
2018-09-06T05:17:14.520Z,74.51
2018-09-06T05:18:14.540Z,74.99
2018-09-06T05:19:14.563Z,74.51
2018-09-06T05:20:14.588Z,75.09
2018-09-06T05:21:14.603Z,74.69
2018-09-06T05:22:14.640Z,74.99
2018-09-06T05:23:14.668Z,75.37
2018-09-06T05:24:14.732Z,75.76
2018-09-06T05:25:14.703Z,75.57
2018-09-06T05:26:14.729Z,75.76
2018-09-06T05:27:14.752Z,75.47
2018-09-06T05:28:14.769Z,75.47
2018-09-06T05:29:14.802Z,75.57
2018-09-06T05:30:14.828Z,75.37
2018-09-06T05:31:14.866Z,75.47
2018-09-06T05:32:14.875Z,75.18
2018-09-06T05:33:14.900Z,76.05
2018-09-06T05:34:14.921Z,75.95
2018-09-06T05:35:15.085Z,75.95
2018-09-06T05:36:15.052Z,75.27
2018-09-06T05:37:14.996Z,75.57
2018-09-06T05:38:15.025Z,75.67
2018-09-06T05:39:15.035Z,75.37
2018-09-06T05:40:15.062Z,75.57
2018-09-06T05:41:15.090Z,75.95
2018-09-06T05:42:15.118Z,75.85
2018-09-06T05:43:15.139Z,75.76
2018-09-06T05:44:15.162Z,75.47
2018-09-06T05:45:15.186Z,75.37
2018-09-06T05:46:15.291Z,75.27
2018-09-06T05:47:15.245Z,75.57
2018-09-06T05:48:15.288Z,75.37
2018-09-06T05:49:15.286Z,75.76
2018-09-06T05:50:15.309Z,75.27
2018-09-06T05:51:15.341Z,75.09
2018-09-06T05:52:15.358Z,75.09
2018-09-06T05:53:16.309Z,75.37
2018-09-06T05:54:15.420Z,75.27
2018-09-06T05:55:15.437Z,75.76
2018-09-06T05:56:15.462Z,75.09
2018-09-06T05:57:15.482Z,75.67
2018-09-06T05:58:15.506Z,75.57
2018-09-06T05:59:15.598Z,75.37
2018-09-06T06:00:15.555Z,75.72
2018-09-06T06:01:15.585Z,75.95
2018-09-06T06:02:15.602Z,75.57
2018-09-06T06:03:15.624Z,75.47
2018-09-06T06:04:15.669Z,75.27
2018-09-06T06:05:15.714Z,75.67
2018-09-06T06:06:15.699Z,75.37
2018-09-06T06:07:15.724Z,75.37
2018-09-06T06:08:15.749Z,75.47
2018-09-06T06:09:15.767Z,75.27
2018-09-06T06:10:15.845Z,75.85
2018-09-06T06:11:15.824Z,75.67
2018-09-06T06:12:15.849Z,76.24
2018-09-06T06:13:15.910Z,75.57
2018-09-06T06:14:15.895Z,75.85
2018-09-06T06:15:15.919Z,75.47
2018-09-06T06:16:15.958Z,75.27
2018-09-06T06:17:15.966Z,75.27
2018-09-06T06:18:16.345Z,75.09
2018-09-06T06:19:16.019Z,74.79
2018-09-06T06:20:16.036Z,75.09
2018-09-06T06:21:16.092Z,75.37
2018-09-06T06:22:16.133Z,75.18
2018-09-06T06:23:16.111Z,74.99
2018-09-06T06:24:16.793Z,74.89
2018-09-06T06:25:16.162Z,74.69
2018-09-06T06:26:16.180Z,74.89
2018-09-06T06:27:16.208Z,74.60
2018-09-06T06:28:16.238Z,74.89
2018-09-06T06:29:16.260Z,74.60
2018-09-06T06:30:16.293Z,74.64
2018-09-06T06:31:16.317Z,74.31
2018-09-06T06:32:16.377Z,74.31
2018-09-06T06:33:16.358Z,74.31
2018-09-06T06:34:16.391Z,74.69
2018-09-06T06:35:16.401Z,75.09
2018-09-06T06:36:16.427Z,74.69
2018-09-06T06:37:16.450Z,75.09
2018-09-06T06:38:16.472Z,74.69
2018-09-06T06:39:16.530Z,74.99
2018-09-06T06:40:16.536Z,74.99
2018-09-06T06:41:16.549Z,75.57
2018-09-06T06:42:16.573Z,75.37
2018-09-06T06:43:16.598Z,75.95
2018-09-06T06:44:16.628Z,75.47
2018-09-06T06:45:16.769Z,75.57
2018-09-06T06:46:16.675Z,74.99
2018-09-06T06:47:16.696Z,75.09
2018-09-06T06:48:16.727Z,75.18
2018-09-06T06:49:16.743Z,74.60
2018-09-06T06:50:16.791Z,75.09
2018-09-06T06:51:16.792Z,75.27
2018-09-06T06:52:16.823Z,75.18
2018-09-06T06:53:16.847Z,74.79
2018-09-06T06:54:16.869Z,74.51
2018-09-06T06:55:16.899Z,74.54
2018-09-06T06:56:16.917Z,74.02
2018-09-06T06:57:16.972Z,73.93
2018-09-06T06:58:16.977Z,74.35
2018-09-06T06:59:16.992Z,74.31
2018-09-06T07:00:17.016Z,74.16
2018-09-06T07:01:17.034Z,74.21
2018-09-06T07:02:17.067Z,74.02
2018-09-06T07:03:17.089Z,74.12
2018-09-06T07:04:17.163Z,73.86
2018-09-06T07:05:17.134Z,73.44
2018-09-06T07:06:17.164Z,73.06
2018-09-06T07:07:17.293Z,72.86
2018-09-06T07:08:17.213Z,72.90
2018-09-06T07:09:17.249Z,73.54
2018-09-06T07:10:17.264Z,73.63
2018-09-06T07:11:17.291Z,73.58
2018-09-06T07:12:17.318Z,73.19
2018-09-06T07:13:17.333Z,72.90
2018-09-06T07:14:17.360Z,73.00
2018-09-06T07:15:17.383Z,73.86
2018-09-06T07:16:17.411Z,73.38
2018-09-06T07:17:17.433Z,73.09
2018-09-06T07:18:17.509Z,73.15
2018-09-06T07:19:17.499Z,72.86
2018-09-06T07:20:17.549Z,73.44
2018-09-06T07:21:17.530Z,73.09
2018-09-06T07:22:17.566Z,73.19
2018-09-06T07:23:17.572Z,73.48
2018-09-06T07:24:17.608Z,72.90
2018-09-06T07:25:17.629Z,72.86
2018-09-06T07:26:17.658Z,72.52
2018-09-06T07:27:17.673Z,72.22
2018-09-06T07:28:17.703Z,72.61
2018-09-06T07:29:17.727Z,72.42
2018-09-06T07:30:17.750Z,73.00
2018-09-06T07:31:17.785Z,72.61
2018-09-06T07:32:17.805Z,73.19
2018-09-06T07:33:17.843Z,73.06
2018-09-06T07:34:17.852Z,73.63
2018-09-06T07:35:17.918Z,73.58
2018-09-06T07:36:17.902Z,73.06
2018-09-06T07:37:18.058Z,72.71
2018-09-06T07:38:17.948Z,72.80
2018-09-06T07:39:17.977Z,72.61
2018-09-06T07:41:18.146Z,73.00
2018-09-06T07:42:18.046Z,72.77
2018-09-06T07:43:18.085Z,72.71
2018-09-06T07:44:18.152Z,72.90
2018-09-06T07:45:18.128Z,73.15
2018-09-06T07:46:18.480Z,73.19
2018-09-06T07:47:18.170Z,73.28
2018-09-06T07:48:18.209Z,73.28
2018-09-06T07:49:18.244Z,73.09
2018-09-06T07:50:18.619Z,73.00
2018-09-06T07:51:18.523Z,72.42
2018-09-06T07:52:18.558Z,72.61
2018-09-06T07:53:18.340Z,72.13
2018-09-06T07:54:18.343Z,72.13
2018-09-06T07:55:18.388Z,72.61
2018-09-06T07:56:18.556Z,72.71
2018-09-06T07:57:18.416Z,72.52
2018-09-06T07:58:18.460Z,72.71
2018-09-06T07:59:18.487Z,72.71
2018-09-06T08:00:18.508Z,72.42
2018-09-06T08:01:18.524Z,73.00
2018-09-06T08:02:18.551Z,72.61
2018-09-06T08:03:18.567Z,73.09
2018-09-06T08:04:18.594Z,73.00
2018-09-06T08:05:18.621Z,73.28
2018-09-06T08:06:18.643Z,73.15
2018-09-06T08:07:18.679Z,73.19
2018-09-06T08:08:18.700Z,72.71
2018-09-06T08:09:18.722Z,73.19
2018-09-06T08:10:18.746Z,73.09
2018-09-06T08:11:18.770Z,73.09
2018-09-06T08:12:18.788Z,73.19
2018-09-06T08:13:18.823Z,73.09
2018-09-06T08:14:18.843Z,73.86
2018-09-06T08:15:18.891Z,73.19
2018-09-06T08:16:18.901Z,73.86
2018-09-06T08:17:18.921Z,73.09
2018-09-06T08:18:18.945Z,73.28
2018-09-06T08:19:18.980Z,73.09
2018-09-06T08:20:18.993Z,73.67
2018-09-06T08:21:19.026Z,73.86
2018-09-06T08:22:19.073Z,73.19
2018-09-06T08:23:19.071Z,72.61
2018-09-06T08:24:19.117Z,72.80
2018-09-06T08:25:19.115Z,72.80
2018-09-06T08:26:19.276Z,72.80
2018-09-06T08:27:19.171Z,72.80
2018-09-06T08:28:19.194Z,72.16
2018-09-06T08:29:19.219Z,71.58
2018-09-06T08:30:19.248Z,71.97
2018-09-06T08:31:19.293Z,71.39
2018-09-06T08:32:19.291Z,71.39
2018-09-06T08:33:19.321Z,71.00
2018-09-06T08:34:19.342Z,71.10
2018-09-06T08:35:19.368Z,71.97
2018-09-06T08:36:19.392Z,71.58
2018-09-06T08:37:19.446Z,70.62
2018-09-06T08:38:19.451Z,71.10
2018-09-06T08:39:19.462Z,70.62
2018-09-06T08:40:19.491Z,71.20
2018-09-06T08:41:19.521Z,70.90
2018-09-06T08:42:19.543Z,70.72
2018-09-06T08:43:19.570Z,70.81
2018-09-06T08:44:19.587Z,70.90
2018-09-06T08:45:19.681Z,70.72
2018-09-06T08:46:19.642Z,70.04
2018-09-06T08:47:19.678Z,70.32
2018-09-06T08:48:19.688Z,70.23
2018-09-06T08:49:19.716Z,70.26
2018-09-06T08:50:19.745Z,70.17
2018-09-06T08:51:19.768Z,70.26
2018-09-06T08:52:19.852Z,70.32
2018-09-06T08:53:19.817Z,70.07
2018-09-06T08:54:19.845Z,70.14
2018-09-06T08:55:19.880Z,70.17
2018-09-06T08:56:19.892Z,70.56
2018-09-06T08:57:19.917Z,69.98
2018-09-06T08:58:19.962Z,70.46
2018-09-06T08:59:19.965Z,70.07
2018-09-06T09:00:19.990Z,69.78
2018-09-06T09:01:20.028Z,69.68
2018-09-06T09:02:20.162Z,69.49
2018-09-06T09:03:20.144Z,69.40
2018-09-06T09:04:20.115Z,69.30
2018-09-06T09:05:20.120Z,69.40
2018-09-06T09:06:20.165Z,69.20
2018-09-06T09:07:20.176Z,69.43
2018-09-06T09:08:20.224Z,68.66
2018-09-06T09:09:20.254Z,68.27
2018-09-06T09:10:20.251Z,67.69
2018-09-06T09:11:20.281Z,67.59
2018-09-06T09:12:20.434Z,67.53
2018-09-06T09:13:20.412Z,66.75
2018-09-06T09:14:20.346Z,66.66
2018-09-06T09:15:20.377Z,65.88
2018-09-06T09:16:20.410Z,66.40
2018-09-06T09:17:20.430Z,66.40
2018-09-06T09:18:20.504Z,65.63
2018-09-06T09:19:20.486Z,65.98
2018-09-06T09:20:20.508Z,65.30
2018-09-06T09:21:20.534Z,65.59
2018-09-06T09:22:20.632Z,65.30
2018-09-06T09:23:20.717Z,65.59
2018-09-06T09:24:20.627Z,65.59
2018-09-06T09:25:20.643Z,65.69
2018-09-06T09:26:20.664Z,65.50
2018-09-06T09:27:20.713Z,65.59
2018-09-06T09:28:20.730Z,65.69
2018-09-06T09:29:20.745Z,65.69
2018-09-06T09:30:20.770Z,66.17
2018-09-06T09:31:20.810Z,65.59
2018-09-06T09:32:20.823Z,65.59
2018-09-06T09:33:20.849Z,65.59
2018-09-06T09:34:20.876Z,65.59
2018-09-06T09:35:20.917Z,65.59
2018-09-06T09:36:20.924Z,65.59
2018-09-06T09:37:20.956Z,66.47
2018-09-06T09:38:20.980Z,66.37
2018-09-06T09:39:21.011Z,65.50
2018-09-06T09:40:21.036Z,66.17
2018-09-06T09:41:21.059Z,65.59
2018-09-06T09:42:21.091Z,65.69
2018-09-06T09:43:21.153Z,65.88
2018-09-06T09:44:21.147Z,65.79
2018-09-06T09:47:54.024Z,66.08
2018-09-06T09:49:15.036Z,65.59
2018-09-06T09:49:54.044Z,65.50
2018-09-06T09:50:54.072Z,65.50
2018-09-06T09:51:54.108Z,65.40
2018-09-06T09:52:54.129Z,65.98
2018-09-06T09:53:54.162Z,65.50
2018-09-06T09:54:54.185Z,65.79
2018-09-06T09:55:54.247Z,65.59
2018-09-06T09:56:54.255Z,65.59
2018-09-06T09:57:54.260Z,65.69
2018-09-06T09:58:54.283Z,65.69
2018-09-06T09:59:54.304Z,65.50
2018-09-06T10:00:54.334Z,66.17
2018-09-06T10:01:54.361Z,66.17
2018-09-06T10:02:55.330Z,66.47
2018-09-06T10:03:54.411Z,66.08
2018-09-06T10:04:54.440Z,65.69
2018-09-06T10:05:54.463Z,65.30
2018-09-06T10:06:54.498Z,65.59
2018-09-06T10:07:54.528Z,65.40
2018-09-06T10:09:54.566Z,65.53
2018-09-06T10:10:54.600Z,64.47
2018-09-06T10:11:54.617Z,64.34
2018-09-06T10:12:54.646Z,63.98
2018-09-06T10:13:54.676Z,64.17
2018-09-06T10:14:54.700Z,64.17
2018-09-06T10:15:54.730Z,63.40
2018-09-06T10:16:54.760Z,63.49
2018-09-06T10:17:54.786Z,63.59
2018-09-06T10:18:54.811Z,63.11
2018-09-06T10:19:54.839Z,62.72
2018-09-06T10:20:54.860Z,63.21
2018-09-06T10:21:54.891Z,62.92
2018-09-06T10:22:55.839Z,63.40
2018-09-06T10:23:54.935Z,63.49
2018-09-06T10:24:54.970Z,63.85
2018-09-06T10:25:54.988Z,63.69
2018-09-06T10:26:55.029Z,63.40
2018-09-06T10:27:55.046Z,63.40
2018-09-06T10:28:55.074Z,62.82
2018-09-06T10:29:55.095Z,61.85
2018-09-06T10:30:55.142Z,62.14
2018-09-06T10:31:55.150Z,61.76
2018-09-06T10:32:55.177Z,61.18
2018-09-06T10:33:55.200Z,61.36
2018-09-06T10:34:55.237Z,61.85
2018-09-06T10:35:55.254Z,62.24
2018-09-06T10:36:55.295Z,62.14
2018-09-06T10:37:55.302Z,61.85
2018-09-06T10:38:55.325Z,61.85
2018-09-06T10:39:55.367Z,62.04
2018-09-06T10:40:55.385Z,62.04
2018-09-06T10:41:55.428Z,62.04
2018-09-06T10:42:55.443Z,62.43
2018-09-06T10:43:55.466Z,62.63
2018-09-06T10:44:55.497Z,62.34
2018-09-06T10:45:55.531Z,62.34
2018-09-06T10:46:55.550Z,62.82
2018-09-06T10:47:55.636Z,63.11
2018-09-06T10:48:55.713Z,62.72
2018-09-06T10:49:55.619Z,63.53
2018-09-06T10:50:55.650Z,63.49
2018-09-06T10:51:55.676Z,63.34
2018-09-06T10:52:55.702Z,63.34
2018-09-06T10:53:55.737Z,63.43
2018-09-06T10:54:55.753Z,63.43
2018-09-06T10:55:55.777Z,63.82
2018-09-06T10:56:55.803Z,63.34
2018-09-06T10:57:55.832Z,62.95
2018-09-06T10:58:55.864Z,63.49
2018-09-06T10:59:55.968Z,63.49
2018-09-06T11:00:55.914Z,63.34
2018-09-06T11:01:55.936Z,63.24
2018-09-06T11:02:55.983Z,63.04
2018-09-06T11:03:55.987Z,63.14
2018-09-06T11:04:56.050Z,62.85
2018-09-06T11:05:56.046Z,62.75
2018-09-06T11:06:56.073Z,62.85
2018-09-06T11:07:56.126Z,62.37
2018-09-06T11:08:56.135Z,62.66
2018-09-06T11:09:56.157Z,63.14
2018-09-06T11:10:56.220Z,61.79
2018-09-06T11:11:56.218Z,62.17
2018-09-06T11:12:56.270Z,61.69
2018-09-06T11:13:56.262Z,61.91
2018-09-06T11:14:56.322Z,61.91
2018-09-06T11:15:56.310Z,62.10
2018-09-06T11:16:56.349Z,62.20
2018-09-06T11:17:56.428Z,62.10
2018-09-06T11:18:56.392Z,62.79
2018-09-06T11:19:56.423Z,61.24
2018-09-06T11:20:56.463Z,60.07
2018-09-06T11:21:56.610Z,61.04
2018-09-06T11:22:56.504Z,60.27
2018-09-06T11:23:56.556Z,60.17
2018-09-06T11:24:56.556Z,60.46
2018-09-06T11:25:56.587Z,60.55
2018-09-06T11:26:56.607Z,60.94
2018-09-06T11:27:56.724Z,59.91
2018-09-06T11:28:56.674Z,59.23
2018-09-06T11:29:56.705Z,58.94
2018-09-06T11:30:56.716Z,58.81
2018-09-06T11:31:56.749Z,58.65
2018-09-06T11:32:56.770Z,58.45
2018-09-06T11:33:56.812Z,58.74
2018-09-06T11:34:56.836Z,58.26
2018-09-06T11:36:56.890Z,58.77
2018-09-06T11:37:56.908Z,56.74
2018-09-06T11:38:56.939Z,56.45
2018-09-06T11:39:56.973Z,56.45
2018-09-06T11:40:57.040Z,56.86
2018-09-06T11:41:57.033Z,56.09
2018-09-06T11:42:57.049Z,56.74
2018-09-06T11:43:57.085Z,57.25
2018-09-06T11:45:57.139Z,57.15
2018-09-06T11:46:57.287Z,56.86
2018-09-06T11:47:57.214Z,56.28
2018-09-06T11:48:57.219Z,56.47
2018-09-06T11:49:57.240Z,56.86
2018-09-06T11:50:57.288Z,56.76
2018-09-06T11:51:57.310Z,56.47
2018-09-06T11:52:57.339Z,56.67
2018-09-06T11:53:57.903Z,56.28
2018-09-06T11:54:57.929Z,55.82
2018-09-06T11:55:57.419Z,56.21
2018-09-06T11:56:57.926Z,56.50
2018-09-06T11:57:57.970Z,55.73
2018-09-06T11:58:57.497Z,55.82
2018-09-06T11:59:57.549Z,55.33
2018-09-06T12:00:57.554Z,55.92
2018-09-06T12:01:57.605Z,55.14
2018-09-06T12:02:57.609Z,55.24
2018-09-06T12:03:57.712Z,55.82
2018-09-06T12:04:58.080Z,56.70
2018-09-06T12:05:57.979Z,56.70
2018-09-06T12:06:57.731Z,56.50
2018-09-06T12:07:57.895Z,56.01
2018-09-06T12:08:58.044Z,55.41
2018-09-06T12:10:58.083Z,56.67
2018-09-06T12:11:57.918Z,57.15
2018-09-06T12:12:57.950Z,56.96
2018-09-06T12:13:57.928Z,55.89
2018-09-06T12:14:57.957Z,55.89
2018-09-06T12:15:57.985Z,56.47
2018-09-06T12:16:58.015Z,56.28
2018-09-06T12:17:58.039Z,56.76
2018-09-06T12:18:58.066Z,55.89
2018-09-06T12:19:58.103Z,56.76
2018-09-06T12:20:58.133Z,56.28
2018-09-06T12:21:58.160Z,56.28
2018-09-06T12:22:58.188Z,57.15
2018-09-06T12:23:58.207Z,56.76
2018-09-06T12:24:58.238Z,56.96
2018-09-06T12:25:58.275Z,56.18
2018-09-06T12:26:58.293Z,56.76
2018-09-06T12:27:58.354Z,56.47
2018-09-06T12:28:58.343Z,56.67
2018-09-06T12:29:58.384Z,57.15
2018-09-06T12:30:58.413Z,57.06
2018-09-06T12:31:58.458Z,57.34
2018-09-06T12:32:58.453Z,57.06
2018-09-06T12:33:58.493Z,56.86
2018-09-06T12:34:58.520Z,56.74
2018-09-06T12:35:58.550Z,57.03
2018-09-06T12:36:58.570Z,56.47
2018-09-06T12:37:58.591Z,56.93
2018-09-06T12:38:58.625Z,56.45
2018-09-06T12:39:58.654Z,57.03
2018-09-06T12:40:58.682Z,56.93
2018-09-06T12:41:58.725Z,57.03
2018-09-06T12:42:58.745Z,56.64
2018-09-06T12:43:58.776Z,55.50
2018-09-06T12:44:58.812Z,56.45
2018-09-06T12:45:58.823Z,56.25
2018-09-06T12:46:58.853Z,55.77
2018-09-06T12:47:58.879Z,56.64
2018-09-06T12:48:58.904Z,57.12
2018-09-06T12:49:58.946Z,57.61
2018-09-06T12:50:58.959Z,57.90
2018-09-06T12:51:58.992Z,57.42
2018-09-06T12:52:59.019Z,56.54
2018-09-06T12:53:59.046Z,56.15
2018-09-06T12:54:59.067Z,56.25
2018-09-06T12:55:59.093Z,56.67
2018-09-06T12:56:59.213Z,55.50
2018-09-06T12:57:59.149Z,55.69
2018-09-06T12:58:59.176Z,56.25
2018-09-06T12:59:59.201Z,56.45
2018-09-06T13:00:59.236Z,56.25
2018-09-06T13:01:59.262Z,56.15
2018-09-06T13:02:59.290Z,56.25
2018-09-06T13:03:59.319Z,56.35
2018-09-06T13:04:59.344Z,55.47